sensor_id;sensor_type;location;lat;lon;timestamp;temperature;humidity
2523;DHT22;1272;53.332;9.860;2023-08-06T00:00:09;15.70;99.90
2523;DHT22;1272;53.332;9.860;2023-08-06T00:02:35;15.70;99.90
2523;DHT22;1272;53.332;9.860;2023-08-06T00:05:00;15.70;99.90
2523;DHT22;1272;53.332;9.860;2023-08-06T00:07:26;15.60;99.90
2523;DHT22;1272;53.332;9.860;2023-08-06T00:09:52;15.60;99.90
2523;DHT22;1272;53.332;9.860;2023-08-06T00:12:17;15.60;99.90
2523;DHT22;1272;53.332;9.860;2023-08-06T00:14:43;15.70;99.90
2523;DHT22;1272;53.332;9.860;2023-08-06T00:17:09;15.60;99.90
2523;DHT22;1272;53.332;9.860;2023-08-06T00:19:35;15.60;99.90
2523;DHT22;1272;53.332;9.860;2023-08-06T00:22:00;15.60;99.90
2523;DHT22;1272;53.332;9.860;2023-08-06T00:24:27;15.60;99.90
2523;DHT22;1272;53.332;9.860;2023-08-06T00:26:53;15.60;99.90
2523;DHT22;1272;53.332;9.860;2023-08-06T00:29:18;15.60;99.90
2523;DHT22;1272;53.332;9.860;2023-08-06T00:31:44;15.60;99.90
2523;DHT22;1272;53.332;9.860;2023-08-06T00:34:10;15.60;99.90
2523;DHT22;1272;53.332;9.860;2023-08-06T00:36:35;15.60;99.90
2523;DHT22;1272;53.332;9.860;2023-08-06T00:39:01;15.60;99.90
2523;DHT22;1272;53.332;9.860;2023-08-06T00:41:27;15.50;99.90
2523;DHT22;1272;53.332;9.860;2023-08-06T00:43:53;15.50;99.90
2523;DHT22;1272;53.332;9.860;2023-08-06T00:46:19;15.50;99.90
2523;DHT22;1272;53.332;9.860;2023-08-06T00:48:45;15.50;99.90
2523;DHT22;1272;53.332;9.860;2023-08-06T00:51:11;15.50;99.90
2523;DHT22;1272;53.332;9.860;2023-08-06T00:53:38;15.50;99.90
2523;DHT22;1272;53.332;9.860;2023-08-06T00:56:04;15.50;99.90
2523;DHT22;1272;53.332;9.860;2023-08-06T00:58:30;15.50;99.90
2523;DHT22;1272;53.332;9.860;2023-08-06T01:00:56;15.50;99.90
2523;DHT22;1272;53.332;9.860;2023-08-06T01:03:22;15.40;99.90
2523;DHT22;1272;53.332;9.860;2023-08-06T01:05:48;15.40;99.90
2523;DHT22;1272;53.332;9.860;2023-08-06T01:13:43;15.40;99.90
2523;DHT22;1272;53.332;9.860;2023-08-06T01:16:15;15.50;99.90
2523;DHT22;1272;53.332;9.860;2023-08-06T01:18:42;15.40;99.90
2523;DHT22;1272;53.332;9.860;2023-08-06T01:21:12;15.40;99.90
2523;DHT22;1272;53.332;9.860;2023-08-06T01:23:38;15.50;99.90
2523;DHT22;1272;53.332;9.860;2023-08-06T01:26:33;15.50;99.90
2523;DHT22;1272;53.332;9.860;2023-08-06T01:29:10;15.50;99.90
2523;DHT22;1272;53.332;9.860;2023-08-06T01:31:39;15.40;99.90
2523;DHT22;1272;53.332;9.860;2023-08-06T01:34:10;15.40;99.90
2523;DHT22;1272;53.332;9.860;2023-08-06T01:36:39;15.40;99.90
2523;DHT22;1272;53.332;9.860;2023-08-06T01:39:05;15.40;99.90
2523;DHT22;1272;53.332;9.860;2023-08-06T01:41:31;15.30;99.90
2523;DHT22;1272;53.332;9.860;2023-08-06T01:43:57;15.40;99.90
2523;DHT22;1272;53.332;9.860;2023-08-06T01:46:23;15.40;99.90
2523;DHT22;1272;53.332;9.860;2023-08-06T01:48:48;15.40;99.90
2523;DHT22;1272;53.332;9.860;2023-08-06T01:51:14;15.40;99.90
2523;DHT22;1272;53.332;9.860;2023-08-06T01:53:40;15.40;99.90
2523;DHT22;1272;53.332;9.860;2023-08-06T01:56:05;15.40;99.90
2523;DHT22;1272;53.332;9.860;2023-08-06T01:58:31;15.40;99.90
2523;DHT22;1272;53.332;9.860;2023-08-06T02:00:57;15.30;99.90
2523;DHT22;1272;53.332;9.860;2023-08-06T02:03:23;15.30;99.90
2523;DHT22;1272;53.332;9.860;2023-08-06T02:05:48;15.30;99.90
2523;DHT22;1272;53.332;9.860;2023-08-06T02:08:14;15.30;99.90
2523;DHT22;1272;53.332;9.860;2023-08-06T02:10:40;15.30;99.90
2523;DHT22;1272;53.332;9.860;2023-08-06T02:13:07;15.30;99.90
2523;DHT22;1272;53.332;9.860;2023-08-06T02:15:32;15.30;99.90
2523;DHT22;1272;53.332;9.860;2023-08-06T02:17:58;15.20;99.90
2523;DHT22;1272;53.332;9.860;2023-08-06T02:20:23;15.20;99.90
2523;DHT22;1272;53.332;9.860;2023-08-06T02:22:49;15.20;99.90
2523;DHT22;1272;53.332;9.860;2023-08-06T02:25:15;15.20;99.90
2523;DHT22;1272;53.332;9.860;2023-08-06T02:27:40;15.20;99.90
2523;DHT22;1272;53.332;9.860;2023-08-06T02:30:06;15.30;99.90
2523;DHT22;1272;53.332;9.860;2023-08-06T02:32:32;15.30;99.90
2523;DHT22;1272;53.332;9.860;2023-08-06T02:35:01;15.20;99.90
2523;DHT22;1272;53.332;9.860;2023-08-06T02:37:27;15.10;99.90
2523;DHT22;1272;53.332;9.860;2023-08-06T02:39:53;15.10;99.90
2523;DHT22;1272;53.332;9.860;2023-08-06T02:42:18;15.10;99.90
2523;DHT22;1272;53.332;9.860;2023-08-06T02:44:44;15.20;99.90
2523;DHT22;1272;53.332;9.860;2023-08-06T02:47:10;15.20;99.90
2523;DHT22;1272;53.332;9.860;2023-08-06T02:49:35;15.20;99.90
2523;DHT22;1272;53.332;9.860;2023-08-06T02:52:02;15.20;99.90
2523;DHT22;1272;53.332;9.860;2023-08-06T02:54:28;15.20;99.90
2523;DHT22;1272;53.332;9.860;2023-08-06T02:56:53;15.20;99.90
2523;DHT22;1272;53.332;9.860;2023-08-06T02:59:19;15.20;99.90
2523;DHT22;1272;53.332;9.860;2023-08-06T03:01:45;15.20;99.90
2523;DHT22;1272;53.332;9.860;2023-08-06T03:04:11;15.20;99.90
2523;DHT22;1272;53.332;9.860;2023-08-06T03:06:36;15.20;99.90
2523;DHT22;1272;53.332;9.860;2023-08-06T03:09:02;15.20;99.90
2523;DHT22;1272;53.332;9.860;2023-08-06T03:11:28;15.10;99.90
2523;DHT22;1272;53.332;9.860;2023-08-06T03:13:53;15.20;99.90
2523;DHT22;1272;53.332;9.860;2023-08-06T03:16:19;15.20;99.90
2523;DHT22;1272;53.332;9.860;2023-08-06T03:18:45;15.20;99.90
2523;DHT22;1272;53.332;9.860;2023-08-06T03:21:10;15.10;99.90
2523;DHT22;1272;53.332;9.860;2023-08-06T03:23:36;15.10;99.90
2523;DHT22;1272;53.332;9.860;2023-08-06T03:26:02;15.20;99.90
2523;DHT22;1272;53.332;9.860;2023-08-06T03:28:28;15.20;99.90
2523;DHT22;1272;53.332;9.860;2023-08-06T03:31:03;15.20;99.90
2523;DHT22;1272;53.332;9.860;2023-08-06T03:33:29;15.20;99.90
2523;DHT22;1272;53.332;9.860;2023-08-06T03:35:55;15.20;99.90
2523;DHT22;1272;53.332;9.860;2023-08-06T03:38:20;15.20;99.90
2523;DHT22;1272;53.332;9.860;2023-08-06T03:40:47;15.20;99.90
2523;DHT22;1272;53.332;9.860;2023-08-06T03:43:12;15.20;99.90
2523;DHT22;1272;53.332;9.860;2023-08-06T03:45:38;15.10;99.90
2523;DHT22;1272;53.332;9.860;2023-08-06T03:48:04;15.10;99.90
2523;DHT22;1272;53.332;9.860;2023-08-06T03:50:29;15.10;99.90
2523;DHT22;1272;53.332;9.860;2023-08-06T03:52:55;15.10;99.90
2523;DHT22;1272;53.332;9.860;2023-08-06T03:55:21;15.20;99.90
2523;DHT22;1272;53.332;9.860;2023-08-06T03:57:47;15.10;99.90
2523;DHT22;1272;53.332;9.860;2023-08-06T04:00:13;15.10;99.90
2523;DHT22;1272;53.332;9.860;2023-08-06T04:02:39;15.10;99.90
2523;DHT22;1272;53.332;9.860;2023-08-06T04:05:04;15.10;99.90
2523;DHT22;1272;53.332;9.860;2023-08-06T04:07:30;15.10;99.90
2523;DHT22;1272;53.332;9.860;2023-08-06T04:10:00;15.20;99.90
2523;DHT22;1272;53.332;9.860;2023-08-06T04:12:26;15.20;99.90
2523;DHT22;1272;53.332;9.860;2023-08-06T04:14:53;15.10;99.90
2523;DHT22;1272;53.332;9.860;2023-08-06T04:17:19;15.10;99.90
2523;DHT22;1272;53.332;9.860;2023-08-06T04:19:54;15.10;99.90
2523;DHT22;1272;53.332;9.860;2023-08-06T04:22:20;15.20;99.90
2523;DHT22;1272;53.332;9.860;2023-08-06T04:24:46;15.20;99.90
2523;DHT22;1272;53.332;9.860;2023-08-06T04:27:13;15.20;99.90
2523;DHT22;1272;53.332;9.860;2023-08-06T04:29:39;15.20;99.90
2523;DHT22;1272;53.332;9.860;2023-08-06T04:32:07;15.20;99.90
2523;DHT22;1272;53.332;9.860;2023-08-06T04:34:33;15.20;99.90
2523;DHT22;1272;53.332;9.860;2023-08-06T04:37:00;15.20;99.90
2523;DHT22;1272;53.332;9.860;2023-08-06T04:39:26;15.20;99.90
2523;DHT22;1272;53.332;9.860;2023-08-06T04:41:51;15.20;99.90
2523;DHT22;1272;53.332;9.860;2023-08-06T04:44:17;15.20;99.90
2523;DHT22;1272;53.332;9.860;2023-08-06T04:46:43;15.20;99.90
2523;DHT22;1272;53.332;9.860;2023-08-06T04:49:08;15.20;99.90
2523;DHT22;1272;53.332;9.860;2023-08-06T04:51:34;15.30;99.90
2523;DHT22;1272;53.332;9.860;2023-08-06T04:54:00;15.30;99.90
2523;DHT22;1272;53.332;9.860;2023-08-06T04:56:26;15.30;99.90
2523;DHT22;1272;53.332;9.860;2023-08-06T04:58:52;15.30;99.90
2523;DHT22;1272;53.332;9.860;2023-08-06T05:01:18;15.30;99.90
2523;DHT22;1272;53.332;9.860;2023-08-06T05:03:43;15.30;99.90
2523;DHT22;1272;53.332;9.860;2023-08-06T05:06:09;15.30;99.90
2523;DHT22;1272;53.332;9.860;2023-08-06T05:08:36;15.40;99.90
2523;DHT22;1272;53.332;9.860;2023-08-06T05:11:01;15.40;99.90
2523;DHT22;1272;53.332;9.860;2023-08-06T05:13:27;15.40;99.90
2523;DHT22;1272;53.332;9.860;2023-08-06T05:15:56;15.40;99.90
2523;DHT22;1272;53.332;9.860;2023-08-06T05:18:21;15.50;99.90
2523;DHT22;1272;53.332;9.860;2023-08-06T05:20:47;15.50;99.90
2523;DHT22;1272;53.332;9.860;2023-08-06T05:23:13;15.40;99.90
2523;DHT22;1272;53.332;9.860;2023-08-06T05:25:39;15.40;99.90
2523;DHT22;1272;53.332;9.860;2023-08-06T05:28:05;15.40;99.90
2523;DHT22;1272;53.332;9.860;2023-08-06T05:30:30;15.40;99.90
2523;DHT22;1272;53.332;9.860;2023-08-06T05:32:56;15.50;99.90
2523;DHT22;1272;53.332;9.860;2023-08-06T05:35:22;15.50;99.90
2523;DHT22;1272;53.332;9.860;2023-08-06T05:37:49;15.50;99.90
2523;DHT22;1272;53.332;9.860;2023-08-06T05:40:15;15.60;99.90
2523;DHT22;1272;53.332;9.860;2023-08-06T05:42:41;15.60;99.90
2523;DHT22;1272;53.332;9.860;2023-08-06T05:45:07;15.60;99.90
2523;DHT22;1272;53.332;9.860;2023-08-06T05:47:33;15.60;99.90
2523;DHT22;1272;53.332;9.860;2023-08-06T05:49:59;15.60;99.90
2523;DHT22;1272;53.332;9.860;2023-08-06T05:52:24;15.70;99.90
2523;DHT22;1272;53.332;9.860;2023-08-06T05:54:50;15.70;99.90
2523;DHT22;1272;53.332;9.860;2023-08-06T05:57:17;15.70;99.90
2523;DHT22;1272;53.332;9.860;2023-08-06T05:59:43;15.70;99.90
2523;DHT22;1272;53.332;9.860;2023-08-06T06:02:08;15.80;99.90
2523;DHT22;1272;53.332;9.860;2023-08-06T06:04:34;15.80;99.90
2523;DHT22;1272;53.332;9.860;2023-08-06T06:07:00;15.90;99.90
2523;DHT22;1272;53.332;9.860;2023-08-06T06:09:26;15.90;99.90
2523;DHT22;1272;53.332;9.860;2023-08-06T06:11:51;15.90;99.90
2523;DHT22;1272;53.332;9.860;2023-08-06T06:14:18;16.00;99.90
2523;DHT22;1272;53.332;9.860;2023-08-06T06:16:44;16.10;99.90
2523;DHT22;1272;53.332;9.860;2023-08-06T06:19:10;16.00;99.90
2523;DHT22;1272;53.332;9.860;2023-08-06T06:21:35;16.00;99.90
2523;DHT22;1272;53.332;9.860;2023-08-06T06:24:01;16.10;99.90
2523;DHT22;1272;53.332;9.860;2023-08-06T06:26:27;16.00;99.90
2523;DHT22;1272;53.332;9.860;2023-08-06T06:28:53;16.00;99.90
2523;DHT22;1272;53.332;9.860;2023-08-06T06:31:19;16.00;99.90
2523;DHT22;1272;53.332;9.860;2023-08-06T06:33:45;16.00;99.90
2523;DHT22;1272;53.332;9.860;2023-08-06T06:36:10;16.10;99.90
2523;DHT22;1272;53.332;9.860;2023-08-06T06:38:37;16.10;99.90
2523;DHT22;1272;53.332;9.860;2023-08-06T06:41:02;16.10;99.90
2523;DHT22;1272;53.332;9.860;2023-08-06T06:43:29;16.20;99.90
2523;DHT22;1272;53.332;9.860;2023-08-06T06:45:58;16.30;99.90
2523;DHT22;1272;53.332;9.860;2023-08-06T06:48:26;16.30;99.90
2523;DHT22;1272;53.332;9.860;2023-08-06T06:50:52;16.40;99.90
2523;DHT22;1272;53.332;9.860;2023-08-06T06:53:17;16.40;99.90
2523;DHT22;1272;53.332;9.860;2023-08-06T06:55:43;16.50;99.90
2523;DHT22;1272;53.332;9.860;2023-08-06T06:58:09;16.50;99.90
2523;DHT22;1272;53.332;9.860;2023-08-06T07:00:38;16.60;99.90
2523;DHT22;1272;53.332;9.860;2023-08-06T07:03:04;16.60;99.90
2523;DHT22;1272;53.332;9.860;2023-08-06T07:05:29;16.70;99.90
2523;DHT22;1272;53.332;9.860;2023-08-06T07:07:55;16.70;99.90
2523;DHT22;1272;53.332;9.860;2023-08-06T07:10:21;16.80;99.90
2523;DHT22;1272;53.332;9.860;2023-08-06T07:12:47;16.90;99.90
2523;DHT22;1272;53.332;9.860;2023-08-06T07:15:12;16.90;99.90
2523;DHT22;1272;53.332;9.860;2023-08-06T07:17:38;16.90;99.90
2523;DHT22;1272;53.332;9.860;2023-08-06T07:20:04;17.00;99.90
2523;DHT22;1272;53.332;9.860;2023-08-06T07:22:31;17.00;99.90
2523;DHT22;1272;53.332;9.860;2023-08-06T07:24:57;17.10;99.90
2523;DHT22;1272;53.332;9.860;2023-08-06T07:27:23;17.10;99.90
2523;DHT22;1272;53.332;9.860;2023-08-06T07:29:49;17.10;99.90
2523;DHT22;1272;53.332;9.860;2023-08-06T07:32:15;17.20;99.90
2523;DHT22;1272;53.332;9.860;2023-08-06T07:34:41;17.20;99.90
2523;DHT22;1272;53.332;9.860;2023-08-06T07:37:07;17.20;99.90
2523;DHT22;1272;53.332;9.860;2023-08-06T07:39:32;17.20;99.90
2523;DHT22;1272;53.332;9.860;2023-08-06T07:41:58;17.30;99.90
2523;DHT22;1272;53.332;9.860;2023-08-06T07:44:24;17.30;99.90
2523;DHT22;1272;53.332;9.860;2023-08-06T07:46:50;17.20;99.90
2523;DHT22;1272;53.332;9.860;2023-08-06T07:49:15;17.20;99.90
2523;DHT22;1272;53.332;9.860;2023-08-06T07:51:41;17.30;99.90
2523;DHT22;1272;53.332;9.860;2023-08-06T07:54:07;17.30;99.90
2523;DHT22;1272;53.332;9.860;2023-08-06T07:56:33;17.30;99.90
2523;DHT22;1272;53.332;9.860;2023-08-06T07:58:59;17.30;99.90
2523;DHT22;1272;53.332;9.860;2023-08-06T08:01:24;17.30;99.90
2523;DHT22;1272;53.332;9.860;2023-08-06T08:03:50;17.40;99.90
2523;DHT22;1272;53.332;9.860;2023-08-06T08:06:16;17.40;99.90
2523;DHT22;1272;53.332;9.860;2023-08-06T08:08:42;17.40;99.90
2523;DHT22;1272;53.332;9.860;2023-08-06T08:11:08;17.40;99.90
2523;DHT22;1272;53.332;9.860;2023-08-06T08:13:33;17.40;99.90
2523;DHT22;1272;53.332;9.860;2023-08-06T08:16:00;17.50;99.90
2523;DHT22;1272;53.332;9.860;2023-08-06T08:18:26;17.40;99.90
2523;DHT22;1272;53.332;9.860;2023-08-06T08:20:52;17.50;99.90
2523;DHT22;1272;53.332;9.860;2023-08-06T08:23:18;17.60;99.90
2523;DHT22;1272;53.332;9.860;2023-08-06T08:25:43;17.60;99.90
2523;DHT22;1272;53.332;9.860;2023-08-06T08:28:09;17.60;99.90
2523;DHT22;1272;53.332;9.860;2023-08-06T08:30:35;17.60;99.90
2523;DHT22;1272;53.332;9.860;2023-08-06T08:33:00;17.70;99.90
2523;DHT22;1272;53.332;9.860;2023-08-06T08:35:26;17.70;99.90
2523;DHT22;1272;53.332;9.860;2023-08-06T08:37:52;17.70;99.90
2523;DHT22;1272;53.332;9.860;2023-08-06T08:40:18;17.80;99.90
2523;DHT22;1272;53.332;9.860;2023-08-06T08:42:43;17.90;99.90
2523;DHT22;1272;53.332;9.860;2023-08-06T08:45:13;18.00;99.90
2523;DHT22;1272;53.332;9.860;2023-08-06T08:47:43;18.10;99.90
2523;DHT22;1272;53.332;9.860;2023-08-06T08:50:09;18.10;99.90
2523;DHT22;1272;53.332;9.860;2023-08-06T08:52:38;18.20;99.90
2523;DHT22;1272;53.332;9.860;2023-08-06T08:55:05;18.20;99.90
2523;DHT22;1272;53.332;9.860;2023-08-06T08:57:32;18.30;99.90
2523;DHT22;1272;53.332;9.860;2023-08-06T08:59:57;18.30;99.90
2523;DHT22;1272;53.332;9.860;2023-08-06T09:02:25;18.40;99.90
2523;DHT22;1272;53.332;9.860;2023-08-06T09:04:52;18.50;99.90
2523;DHT22;1272;53.332;9.860;2023-08-06T09:07:19;18.60;99.90
2523;DHT22;1272;53.332;9.860;2023-08-06T09:09:49;18.80;99.90
2523;DHT22;1272;53.332;9.860;2023-08-06T09:12:16;18.80;99.90
2523;DHT22;1272;53.332;9.860;2023-08-06T09:14:42;18.90;99.90
2523;DHT22;1272;53.332;9.860;2023-08-06T09:17:08;18.90;99.90
2523;DHT22;1272;53.332;9.860;2023-08-06T09:19:36;18.80;95.70
2523;DHT22;1272;53.332;9.860;2023-08-06T09:22:02;18.90;99.90
2523;DHT22;1272;53.332;9.860;2023-08-06T09:24:28;18.90;99.90
2523;DHT22;1272;53.332;9.860;2023-08-06T09:26:54;19.00;99.90
2523;DHT22;1272;53.332;9.860;2023-08-06T09:29:20;19.20;99.90
2523;DHT22;1272;53.332;9.860;2023-08-06T09:31:46;19.20;99.90
2523;DHT22;1272;53.332;9.860;2023-08-06T09:34:17;19.30;17.30
2523;DHT22;1272;53.332;9.860;2023-08-06T09:36:46;19.30;1.00
2523;DHT22;1272;53.332;9.860;2023-08-06T09:39:16;19.40;1.00
2523;DHT22;1272;53.332;9.860;2023-08-06T09:41:43;19.40;99.90
2523;DHT22;1272;53.332;9.860;2023-08-06T09:44:19;19.50;47.60
2523;DHT22;1272;53.332;9.860;2023-08-06T09:46:52;19.60;1.00
2523;DHT22;1272;53.332;9.860;2023-08-06T09:49:19;19.70;1.00
2523;DHT22;1272;53.332;9.860;2023-08-06T09:51:47;19.90;86.50
2523;DHT22;1272;53.332;9.860;2023-08-06T09:54:16;20.00;1.00
2523;DHT22;1272;53.332;9.860;2023-08-06T09:56:42;20.10;1.00
2523;DHT22;1272;53.332;9.860;2023-08-06T09:59:08;20.30;1.00
2523;DHT22;1272;53.332;9.860;2023-08-06T10:01:36;20.40;1.00
2523;DHT22;1272;53.332;9.860;2023-08-06T10:04:06;20.30;1.00
2523;DHT22;1272;53.332;9.860;2023-08-06T10:06:34;20.30;1.00
2523;DHT22;1272;53.332;9.860;2023-08-06T10:09:04;20.30;99.90
2523;DHT22;1272;53.332;9.860;2023-08-06T10:11:30;20.40;99.90
2523;DHT22;1272;53.332;9.860;2023-08-06T10:16:35;20.20;1.00
2523;DHT22;1272;53.332;9.860;2023-08-06T10:19:03;20.20;1.00
2523;DHT22;1272;53.332;9.860;2023-08-06T10:21:31;20.30;1.00
2523;DHT22;1272;53.332;9.860;2023-08-06T10:23:57;20.40;52.30
2523;DHT22;1272;53.332;9.860;2023-08-06T10:26:27;20.40;23.50
2523;DHT22;1272;53.332;9.860;2023-08-06T10:28:53;20.50;1.00
2523;DHT22;1272;53.332;9.860;2023-08-06T10:31:20;20.40;1.00
2523;DHT22;1272;53.332;9.860;2023-08-06T10:33:46;20.50;99.90
2523;DHT22;1272;53.332;9.860;2023-08-06T10:36:13;20.60;9.90
2523;DHT22;1272;53.332;9.860;2023-08-06T10:38:47;20.70;1.00
2523;DHT22;1272;53.332;9.860;2023-08-06T10:41:27;20.90;99.90
2523;DHT22;1272;53.332;9.860;2023-08-06T10:44:08;21.00;1.00
2523;DHT22;1272;53.332;9.860;2023-08-06T10:46:35;21.10;99.90
2523;DHT22;1272;53.332;9.860;2023-08-06T10:49:01;21.00;99.90
2523;DHT22;1272;53.332;9.860;2023-08-06T10:51:27;21.10;99.90
2523;DHT22;1272;53.332;9.860;2023-08-06T10:53:53;21.20;99.90
2523;DHT22;1272;53.332;9.860;2023-08-06T10:56:22;21.30;1.00
2523;DHT22;1272;53.332;9.860;2023-08-06T10:58:50;21.40;99.90
2523;DHT22;1272;53.332;9.860;2023-08-06T11:01:16;21.30;99.90
2523;DHT22;1272;53.332;9.860;2023-08-06T11:03:44;21.30;1.00
2523;DHT22;1272;53.332;9.860;2023-08-06T11:06:10;21.20;99.90
2523;DHT22;1272;53.332;9.860;2023-08-06T11:08:46;21.20;1.00
2523;DHT22;1272;53.332;9.860;2023-08-06T11:11:13;21.30;1.00
2523;DHT22;1272;53.332;9.860;2023-08-06T11:13:47;21.50;99.90
2523;DHT22;1272;53.332;9.860;2023-08-06T11:16:18;21.60;1.00
2523;DHT22;1272;53.332;9.860;2023-08-06T11:18:44;21.80;99.90
2523;DHT22;1272;53.332;9.860;2023-08-06T11:21:10;21.90;89.80
2523;DHT22;1272;53.332;9.860;2023-08-06T11:23:40;21.90;99.90
2523;DHT22;1272;53.332;9.860;2023-08-06T11:26:06;22.00;99.90
2523;DHT22;1272;53.332;9.860;2023-08-06T11:28:31;22.00;1.00
2523;DHT22;1272;53.332;9.860;2023-08-06T11:30:58;22.00;99.90
2523;DHT22;1272;53.332;9.860;2023-08-06T11:33:26;21.80;10.40
2523;DHT22;1272;53.332;9.860;2023-08-06T11:35:57;21.80;99.90
2523;DHT22;1272;53.332;9.860;2023-08-06T11:38:29;21.80;99.90
2523;DHT22;1272;53.332;9.860;2023-08-06T11:40:56;21.60;99.90
2523;DHT22;1272;53.332;9.860;2023-08-06T11:43:22;21.50;99.90
2523;DHT22;1272;53.332;9.860;2023-08-06T11:45:51;21.50;1.00
2523;DHT22;1272;53.332;9.860;2023-08-06T11:48:19;21.50;1.00
2523;DHT22;1272;53.332;9.860;2023-08-06T11:50:45;21.50;99.90
2523;DHT22;1272;53.332;9.860;2023-08-06T11:53:14;21.40;25.10
2523;DHT22;1272;53.332;9.860;2023-08-06T11:55:40;21.20;99.90
2523;DHT22;1272;53.332;9.860;2023-08-06T11:58:06;21.10;99.90
2523;DHT22;1272;53.332;9.860;2023-08-06T12:00:32;21.00;99.90
2523;DHT22;1272;53.332;9.860;2023-08-06T12:02:58;20.90;1.00
2523;DHT22;1272;53.332;9.860;2023-08-06T12:05:30;20.90;99.90
2523;DHT22;1272;53.332;9.860;2023-08-06T12:08:00;20.90;1.00
2523;DHT22;1272;53.332;9.860;2023-08-06T12:10:30;20.80;1.00
2523;DHT22;1272;53.332;9.860;2023-08-06T12:12:55;20.80;99.90
2523;DHT22;1272;53.332;9.860;2023-08-06T12:15:22;20.80;1.00
2523;DHT22;1272;53.332;9.860;2023-08-06T12:17:48;20.80;1.00
2523;DHT22;1272;53.332;9.860;2023-08-06T12:20:15;20.70;99.90
2523;DHT22;1272;53.332;9.860;2023-08-06T12:22:41;20.70;99.90
2523;DHT22;1272;53.332;9.860;2023-08-06T12:25:10;20.60;1.00
2523;DHT22;1272;53.332;9.860;2023-08-06T12:27:39;20.70;99.90
2523;DHT22;1272;53.332;9.860;2023-08-06T12:30:05;20.70;99.90
2523;DHT22;1272;53.332;9.860;2023-08-06T12:32:31;20.80;99.90
2523;DHT22;1272;53.332;9.860;2023-08-06T12:34:57;20.70;99.90
2523;DHT22;1272;53.332;9.860;2023-08-06T12:37:24;20.70;64.00
2523;DHT22;1272;53.332;9.860;2023-08-06T12:39:50;20.70;90.20
2523;DHT22;1272;53.332;9.860;2023-08-06T12:42:16;20.70;99.90
2523;DHT22;1272;53.332;9.860;2023-08-06T12:44:41;20.80;99.90
2523;DHT22;1272;53.332;9.860;2023-08-06T12:47:07;20.90;99.90
2523;DHT22;1272;53.332;9.860;2023-08-06T12:49:33;20.90;99.90
2523;DHT22;1272;53.332;9.860;2023-08-06T12:51:59;20.90;99.90
2523;DHT22;1272;53.332;9.860;2023-08-06T12:54:30;20.90;99.90
2523;DHT22;1272;53.332;9.860;2023-08-06T12:57:02;20.90;39.00
2523;DHT22;1272;53.332;9.860;2023-08-06T12:59:27;21.00;27.80
2523;DHT22;1272;53.332;9.860;2023-08-06T13:01:53;21.10;99.90
2523;DHT22;1272;53.332;9.860;2023-08-06T13:04:19;21.20;1.00
2523;DHT22;1272;53.332;9.860;2023-08-06T13:06:44;21.20;1.00
2523;DHT22;1272;53.332;9.860;2023-08-06T13:09:10;21.30;1.00
2523;DHT22;1272;53.332;9.860;2023-08-06T13:11:36;21.40;1.00
2523;DHT22;1272;53.332;9.860;2023-08-06T13:14:10;21.50;1.00
2523;DHT22;1272;53.332;9.860;2023-08-06T13:16:38;21.70;12.40
2523;DHT22;1272;53.332;9.860;2023-08-06T13:19:05;22.10;1.00
2523;DHT22;1272;53.332;9.860;2023-08-06T13:21:35;22.40;99.90
2523;DHT22;1272;53.332;9.860;2023-08-06T13:24:17;22.50;99.90
2523;DHT22;1272;53.332;9.860;2023-08-06T13:26:43;22.60;99.90
2523;DHT22;1272;53.332;9.860;2023-08-06T13:29:09;22.60;99.90
2523;DHT22;1272;53.332;9.860;2023-08-06T13:31:36;22.50;99.90
2523;DHT22;1272;53.332;9.860;2023-08-06T13:34:02;22.50;99.90
2523;DHT22;1272;53.332;9.860;2023-08-06T13:36:28;22.80;99.90
2523;DHT22;1272;53.332;9.860;2023-08-06T13:38:54;23.20;99.90
2523;DHT22;1272;53.332;9.860;2023-08-06T13:41:20;23.20;99.90
2523;DHT22;1272;53.332;9.860;2023-08-06T13:43:46;23.20;99.90
2523;DHT22;1272;53.332;9.860;2023-08-06T13:46:12;22.90;99.90
2523;DHT22;1272;53.332;9.860;2023-08-06T13:48:42;22.80;99.90
2523;DHT22;1272;53.332;9.860;2023-08-06T13:51:08;22.80;99.90
2523;DHT22;1272;53.332;9.860;2023-08-06T13:53:34;22.60;99.90
2523;DHT22;1272;53.332;9.860;2023-08-06T13:55:59;22.50;99.90
2523;DHT22;1272;53.332;9.860;2023-08-06T13:58:25;22.40;99.90
2523;DHT22;1272;53.332;9.860;2023-08-06T14:00:52;22.30;99.90
2523;DHT22;1272;53.332;9.860;2023-08-06T14:03:19;22.20;99.90
2523;DHT22;1272;53.332;9.860;2023-08-06T14:05:45;22.20;99.90
2523;DHT22;1272;53.332;9.860;2023-08-06T14:08:11;22.30;99.90
2523;DHT22;1272;53.332;9.860;2023-08-06T14:10:37;22.30;99.90
2523;DHT22;1272;53.332;9.860;2023-08-06T14:13:02;22.20;99.90
2523;DHT22;1272;53.332;9.860;2023-08-06T14:15:28;22.20;99.90
2523;DHT22;1272;53.332;9.860;2023-08-06T14:17:54;21.90;1.00
2523;DHT22;1272;53.332;9.860;2023-08-06T14:20:19;21.90;1.00
2523;DHT22;1272;53.332;9.860;2023-08-06T14:22:45;21.90;1.00
2523;DHT22;1272;53.332;9.860;2023-08-06T14:25:11;21.80;1.00
2523;DHT22;1272;53.332;9.860;2023-08-06T14:27:36;21.80;1.00
2523;DHT22;1272;53.332;9.860;2023-08-06T14:30:05;21.70;1.00
2523;DHT22;1272;53.332;9.860;2023-08-06T14:32:32;21.50;1.00
2523;DHT22;1272;53.332;9.860;2023-08-06T14:34:57;21.40;94.20
2523;DHT22;1272;53.332;9.860;2023-08-06T14:37:24;21.30;1.10
2523;DHT22;1272;53.332;9.860;2023-08-06T14:39:51;21.20;1.00
2523;DHT22;1272;53.332;9.860;2023-08-06T14:42:17;21.20;1.00
2523;DHT22;1272;53.332;9.860;2023-08-06T14:44:43;21.10;99.90
2523;DHT22;1272;53.332;9.860;2023-08-06T14:47:09;21.00;13.60
2523;DHT22;1272;53.332;9.860;2023-08-06T14:49:34;20.90;1.00
2523;DHT22;1272;53.332;9.860;2023-08-06T14:52:00;20.80;73.90
2523;DHT22;1272;53.332;9.860;2023-08-06T14:54:27;20.70;46.20
2523;DHT22;1272;53.332;9.860;2023-08-06T14:56:53;20.70;99.90
2523;DHT22;1272;53.332;9.860;2023-08-06T14:59:18;20.70;99.90
2523;DHT22;1272;53.332;9.860;2023-08-06T15:01:44;20.70;99.90
2523;DHT22;1272;53.332;9.860;2023-08-06T15:04:10;20.60;99.90
2523;DHT22;1272;53.332;9.860;2023-08-06T15:06:35;20.60;99.90
2523;DHT22;1272;53.332;9.860;2023-08-06T15:09:01;20.50;99.90
2523;DHT22;1272;53.332;9.860;2023-08-06T15:11:27;20.50;1.00
2523;DHT22;1272;53.332;9.860;2023-08-06T15:13:53;20.50;1.00
2523;DHT22;1272;53.332;9.860;2023-08-06T15:16:19;20.40;4.30
2523;DHT22;1272;53.332;9.860;2023-08-06T15:18:44;20.40;1.00
2523;DHT22;1272;53.332;9.860;2023-08-06T15:21:10;20.40;99.90
2523;DHT22;1272;53.332;9.860;2023-08-06T15:23:36;20.40;72.70
2523;DHT22;1272;53.332;9.860;2023-08-06T15:26:02;20.30;23.40
2523;DHT22;1272;53.332;9.860;2023-08-06T15:28:28;20.10;1.00
2523;DHT22;1272;53.332;9.860;2023-08-06T15:30:54;20.00;1.00
2523;DHT22;1272;53.332;9.860;2023-08-06T15:33:20;19.70;1.00
2523;DHT22;1272;53.332;9.860;2023-08-06T15:35:47;19.50;99.90
2523;DHT22;1272;53.332;9.860;2023-08-06T15:38:13;19.30;1.00
2523;DHT22;1272;53.332;9.860;2023-08-06T15:40:38;19.10;1.00
2523;DHT22;1272;53.332;9.860;2023-08-06T15:43:04;19.00;1.00
2523;DHT22;1272;53.332;9.860;2023-08-06T15:45:30;18.80;99.90
2523;DHT22;1272;53.332;9.860;2023-08-06T15:47:56;18.70;99.90
2523;DHT22;1272;53.332;9.860;2023-08-06T15:50:22;18.60;1.00
2523;DHT22;1272;53.332;9.860;2023-08-06T15:52:48;18.60;1.00
2523;DHT22;1272;53.332;9.860;2023-08-06T15:55:14;18.50;22.10
2523;DHT22;1272;53.332;9.860;2023-08-06T15:57:40;18.40;99.90
2523;DHT22;1272;53.332;9.860;2023-08-06T16:00:06;18.40;58.90
2523;DHT22;1272;53.332;9.860;2023-08-06T16:02:32;18.40;77.80
2523;DHT22;1272;53.332;9.860;2023-08-06T16:04:59;18.40;1.00
2523;DHT22;1272;53.332;9.860;2023-08-06T16:07:25;18.30;97.00